createdAt,value
2022-12-19T00:00:49.063Z,18.10
2022-12-19T00:03:27.088Z,17.10
2022-12-19T00:05:54.819Z,16.40
2022-12-19T00:08:22.514Z,17.00
2022-12-19T00:11:00.046Z,16.70
2022-12-19T00:13:31.230Z,16.70
2022-12-19T00:16:19.060Z,17.90
2022-12-19T00:18:49.383Z,17.90
2022-12-19T00:21:21.418Z,16.80
2022-12-19T00:23:50.582Z,15.60
2022-12-19T00:26:23.750Z,17.60
2022-12-19T00:28:54.921Z,16.80
2022-12-19T00:31:28.510Z,16.70
2022-12-19T00:33:58.094Z,15.90
2022-12-19T00:36:30.047Z,16.60
2022-12-19T00:39:00.646Z,16.60
2022-12-19T00:41:34.852Z,14.30
2022-12-19T00:44:10.396Z,14.30
2022-12-19T00:46:38.350Z,15.90
2022-12-19T00:49:07.406Z,18.20
2022-12-19T00:51:37.494Z,18.30
2022-12-19T00:54:18.392Z,14.80
2022-12-19T00:56:46.634Z,17.50
2022-12-19T00:59:14.339Z,17.60
2022-12-19T01:01:44.361Z,15.00
2022-12-19T01:04:31.286Z,7.30
2022-12-19T01:07:02.381Z,11.70
2022-12-19T01:09:32.939Z,14.30
2022-12-19T01:12:20.495Z,15.90
2022-12-19T01:14:54.705Z,15.80
2022-12-19T01:17:26.442Z,14.80
2022-12-19T01:19:54.096Z,15.00
2022-12-19T01:22:21.822Z,14.80
2022-12-19T01:24:49.493Z,16.00
2022-12-19T01:27:17.185Z,16.80
2022-12-19T01:29:52.554Z,16.70
2022-12-19T01:32:21.987Z,15.90
2022-12-19T01:34:49.746Z,16.80
2022-12-19T01:37:18.112Z,17.00
2022-12-19T01:39:46.506Z,15.70
2022-12-19T01:42:23.345Z,13.60
2022-12-19T01:45:13.660Z,14.10
2022-12-19T01:48:33.167Z,16.10
2022-12-19T01:51:06.910Z,14.60
2022-12-19T01:53:49.370Z,13.80
2022-12-19T01:56:31.811Z,15.10
2022-12-19T01:59:09.513Z,15.40
2022-12-19T02:01:50.766Z,14.70
2022-12-19T02:04:20.747Z,14.10
2022-12-19T02:06:50.392Z,14.30
2022-12-19T02:09:19.393Z,16.50
2022-12-19T02:11:47.165Z,15.50
2022-12-19T02:14:14.926Z,16.00
2022-12-19T02:17:10.812Z,14.60
2022-12-19T02:20:12.154Z,14.50
2022-12-19T02:23:01.488Z,15.20
2022-12-19T02:26:19.176Z,14.30
2022-12-19T02:29:11.215Z,14.80
2022-12-19T02:31:54.018Z,14.80
2022-12-19T02:35:31.989Z,14.20
2022-12-19T02:38:20.126Z,15.10
2022-12-19T02:41:13.517Z,11.60
2022-12-19T02:43:49.602Z,12.10
2022-12-19T02:46:22.337Z,13.40
2022-12-19T02:48:52.302Z,10.60
2022-12-19T02:51:19.967Z,9.70
2022-12-19T02:53:48.432Z,14.00
2022-12-19T02:56:28.995Z,17.00
2022-12-19T02:59:30.469Z,15.60
2022-12-19T03:02:25.766Z,15.20
2022-12-19T03:05:04.780Z,15.60
2022-12-19T03:08:09.627Z,15.10
2022-12-19T03:10:41.681Z,14.10
2022-12-19T03:13:17.489Z,16.40
2022-12-19T03:15:46.038Z,18.30
2022-12-19T03:18:14.039Z,16.10
2022-12-19T03:21:13.014Z,17.00
2022-12-19T03:23:41.920Z,15.60
2022-12-19T03:26:27.856Z,17.20
2022-12-19T03:29:05.325Z,17.90
2022-12-19T03:31:36.872Z,16.90
2022-12-19T03:34:20.132Z,16.70
2022-12-19T03:36:56.423Z,16.40
2022-12-19T03:39:26.903Z,16.80
2022-12-19T03:42:16.428Z,16.90
2022-12-19T03:44:44.640Z,18.30
2022-12-19T03:47:29.018Z,15.70
2022-12-19T03:49:57.173Z,17.20
2022-12-19T03:52:33.360Z,16.20
2022-12-19T03:55:24.436Z,15.10
2022-12-19T03:58:10.585Z,17.70
2022-12-19T04:00:47.451Z,15.20
2022-12-19T04:03:19.570Z,15.00
2022-12-19T04:05:50.538Z,16.10
2022-12-19T04:08:18.904Z,16.70
2022-12-19T04:11:04.051Z,16.70
2022-12-19T04:14:00.408Z,13.50
2022-12-19T04:16:54.017Z,16.60
2022-12-19T04:19:37.492Z,16.20
2022-12-19T04:22:17.847Z,17.30
2022-12-19T04:24:47.942Z,13.80
2022-12-19T04:27:16.782Z,15.80
2022-12-19T04:29:45.319Z,15.20
2022-12-19T04:32:14.561Z,14.00
2022-12-19T04:34:43.152Z,15.30
2022-12-19T04:37:12.950Z,16.90
2022-12-19T04:39:41.192Z,18.10
2022-12-19T04:42:09.002Z,16.50
2022-12-19T04:44:36.610Z,15.20
2022-12-19T04:47:04.474Z,14.90
2022-12-19T04:49:32.126Z,15.50
2022-12-19T04:51:59.857Z,14.70
2022-12-19T04:54:27.730Z,12.70
2022-12-19T04:56:55.640Z,16.80
2022-12-19T04:59:24.104Z,12.10
2022-12-19T05:01:51.890Z,15.60
2022-12-19T05:04:19.645Z,15.80
2022-12-19T05:06:47.325Z,13.30
2022-12-19T05:09:15.129Z,14.90
2022-12-19T05:11:42.867Z,16.50
2022-12-19T05:14:10.748Z,15.50
2022-12-19T05:16:38.426Z,17.50
2022-12-19T05:19:06.080Z,16.50
2022-12-19T05:21:33.723Z,18.70
2022-12-19T05:24:01.856Z,15.80
2022-12-19T05:26:29.564Z,18.10
2022-12-19T05:28:57.197Z,18.70
2022-12-19T05:31:24.902Z,19.10
2022-12-19T05:33:52.707Z,17.40
2022-12-19T05:36:20.469Z,15.40
2022-12-19T05:38:48.421Z,17.80
2022-12-19T05:41:19.702Z,18.10
2022-12-19T05:43:53.442Z,18.40
2022-12-19T05:46:22.274Z,18.20
2022-12-19T05:48:50.711Z,17.20
2022-12-19T05:51:19.138Z,16.60
2022-12-19T05:53:47.082Z,17.10
2022-12-19T05:56:19.762Z,17.30
2022-12-19T05:58:48.006Z,17.10
2022-12-19T06:01:26.119Z,17.40
2022-12-19T06:03:55.269Z,15.60
2022-12-19T06:06:26.589Z,18.50
2022-12-19T06:08:59.677Z,17.70
2022-12-19T06:11:27.420Z,18.50
2022-12-19T06:13:55.082Z,19.20
2022-12-19T06:16:23.419Z,18.40
2022-12-19T06:18:51.354Z,20.70
2022-12-19T06:21:23.767Z,19.90
2022-12-19T06:23:51.598Z,21.30
2022-12-19T06:26:22.594Z,17.60
2022-12-19T06:28:52.694Z,16.40
2022-12-19T06:31:23.517Z,17.20
2022-12-19T06:33:54.609Z,16.30
2022-12-19T06:36:25.981Z,17.40
2022-12-19T06:38:57.867Z,16.00
2022-12-19T06:41:45.954Z,15.10
2022-12-19T06:44:17.367Z,15.40
2022-12-19T06:46:45.200Z,17.50
2022-12-19T06:49:13.063Z,15.60
2022-12-19T06:51:41.360Z,14.60
2022-12-19T06:54:11.898Z,18.00
2022-12-19T06:56:42.547Z,19.10
2022-12-19T06:59:16.570Z,18.00
2022-12-19T07:02:16.861Z,19.90
2022-12-19T07:04:55.354Z,20.60
2022-12-19T07:07:23.158Z,17.60
2022-12-19T07:09:50.950Z,21.00
2022-12-19T07:12:18.627Z,14.90
2022-12-19T07:14:51.682Z,17.50
2022-12-19T07:17:24.088Z,16.70
2022-12-19T07:19:56.122Z,18.60
2022-12-19T07:22:29.507Z,19.00
2022-12-19T07:24:58.197Z,19.30
2022-12-19T07:27:35.259Z,19.20
2022-12-19T07:30:06.471Z,17.30
2022-12-19T07:32:34.253Z,17.60
2022-12-19T07:35:02.660Z,19.10
2022-12-19T07:37:30.317Z,18.50
2022-12-19T07:39:58.081Z,19.20
2022-12-19T07:42:29.403Z,20.60
2022-12-19T07:45:01.455Z,21.40
2022-12-19T07:47:29.196Z,22.10
2022-12-19T07:49:56.980Z,19.80
2022-12-19T07:52:24.895Z,21.90
2022-12-19T07:54:52.646Z,20.30
2022-12-19T07:57:20.554Z,16.80
2022-12-19T07:59:48.268Z,17.50
2022-12-19T08:02:16.137Z,15.60
2022-12-19T08:04:43.949Z,19.40
2022-12-19T08:07:11.655Z,18.20
2022-12-19T08:09:39.455Z,17.90
2022-12-19T08:12:07.469Z,20.20
2022-12-19T08:14:35.232Z,15.50
2022-12-19T08:19:50.939Z,18.00
2022-12-19T08:22:18.980Z,16.70
2022-12-19T08:24:46.654Z,17.90
2022-12-19T08:27:17.008Z,16.50
2022-12-19T08:29:44.705Z,13.60
2022-12-19T08:32:17.059Z,19.20
2022-12-19T08:34:48.623Z,21.90
2022-12-19T08:37:17.188Z,18.50
2022-12-19T08:39:45.060Z,18.80
2022-12-19T08:42:12.848Z,18.50
2022-12-19T08:44:40.808Z,14.30
2022-12-19T08:47:09.663Z,18.20
2022-12-19T08:49:37.401Z,18.20
2022-12-19T08:52:05.087Z,14.90
2022-12-19T08:54:32.712Z,14.00
2022-12-19T08:57:00.408Z,16.40
2022-12-19T08:59:31.479Z,21.40
2022-12-19T09:02:01.837Z,19.80
2022-12-19T09:05:31.797Z,18.40
2022-12-19T09:07:18.537Z,18.70
2022-12-19T09:09:46.463Z,18.30
2022-12-19T09:12:16.596Z,20.30
2022-12-19T09:14:44.521Z,20.90
2022-12-19T09:17:12.404Z,20.70
2022-12-19T09:19:40.298Z,18.80
2022-12-19T09:22:10.803Z,20.90
2022-12-19T09:24:38.524Z,18.20
2022-12-19T09:27:06.286Z,19.70
2022-12-19T09:29:35.713Z,18.80
2022-12-19T09:32:03.982Z,18.00
2022-12-19T09:34:38.055Z,15.10
2022-12-19T09:37:15.425Z,12.50
2022-12-19T09:39:47.045Z,18.40
2022-12-19T09:42:41.147Z,13.90
2022-12-19T09:45:31.908Z,19.00
2022-12-19T09:48:02.511Z,15.10
2022-12-19T09:51:16.480Z,21.20
2022-12-19T09:54:07.548Z,21.40
2022-12-19T09:56:46.415Z,17.80
2022-12-19T09:59:39.721Z,15.50
2022-12-19T10:02:31.499Z,16.90
2022-12-19T10:05:37.617Z,18.50
2022-12-19T10:08:44.793Z,13.30
2022-12-19T10:12:43.675Z,22.30
2022-12-19T10:15:37.628Z,16.10
2022-12-19T10:18:17.680Z,21.00
2022-12-19T10:21:04.135Z,19.40
2022-12-19T10:24:20.187Z,22.20
2022-12-19T10:27:01.624Z,19.90
2022-12-19T10:30:03.883Z,19.80
2022-12-19T10:32:31.481Z,15.60
2022-12-19T10:35:00.250Z,14.10
2022-12-19T10:37:43.908Z,14.60
2022-12-19T10:40:36.580Z,12.80
2022-12-19T10:43:32.879Z,16.10
2022-12-19T10:46:20.198Z,20.30
2022-12-19T10:48:52.688Z,13.10
2022-12-19T10:51:28.704Z,15.10
2022-12-19T10:54:01.395Z,14.50
2022-12-19T10:56:37.089Z,13.10
2022-12-19T10:59:18.051Z,14.20
2022-12-19T11:01:54.215Z,9.40
2022-12-19T11:04:36.735Z,12.80
2022-12-19T11:07:07.017Z,9.60
2022-12-19T11:09:40.929Z,13.60
2022-12-19T11:14:49.930Z,15.40
2022-12-19T11:18:07.111Z,12.80
2022-12-19T11:27:06.625Z,14.10
2022-12-19T11:29:40.931Z,15.40
2022-12-19T11:30:35.947Z,14.50
2022-12-19T11:30:48.370Z,12.50
2022-12-19T11:32:47.565Z,12.20
2022-12-19T11:35:36.956Z,13.30
2022-12-19T11:38:08.350Z,15.80
2022-12-19T11:40:53.060Z,16.70
2022-12-19T11:43:45.111Z,17.50
2022-12-19T11:46:37.771Z,16.40
2022-12-19T11:49:27.064Z,12.10
2022-12-19T11:52:01.016Z,10.60
2022-12-19T11:55:17.140Z,11.80
2022-12-19T11:57:46.645Z,14.20
2022-12-19T12:00:20.960Z,16.30
2022-12-19T12:03:26.739Z,17.60
2022-12-19T12:05:56.556Z,8.50
2022-12-19T12:11:08.754Z,16.20
2022-12-19T12:17:53.217Z,16.90
2022-12-19T12:28:47.925Z,18.60
2022-12-19T12:31:04.009Z,14.60
2022-12-19T12:31:11.128Z,10.60
2022-12-19T12:31:54.111Z,15.40
2022-12-19T12:31:57.030Z,19.10
2022-12-19T12:35:38.341Z,19.10
2022-12-19T12:42:04.640Z,22.30
2022-12-19T12:44:44.871Z,18.40
2022-12-19T12:47:27.588Z,19.20
2022-12-19T12:50:07.195Z,18.50
2022-12-19T12:52:41.097Z,18.30
2022-12-19T12:55:28.935Z,14.10
2022-12-19T12:57:57.655Z,18.90
2022-12-19T13:00:32.109Z,21.60
2022-12-19T13:03:11.498Z,19.70
2022-12-19T13:06:07.670Z,18.00
2022-12-19T13:08:39.069Z,17.60
2022-12-19T13:11:34.224Z,16.40
2022-12-19T13:14:02.580Z,18.30
2022-12-19T13:16:45.536Z,13.40
2022-12-19T13:19:28.027Z,14.30
2022-12-19T13:22:09.036Z,15.00
2022-12-19T13:24:55.668Z,13.30
2022-12-19T13:27:23.903Z,16.40
2022-12-19T13:30:00.935Z,16.70
2022-12-19T13:32:54.830Z,16.60
2022-12-19T13:36:38.624Z,17.40
2022-12-19T13:39:48.574Z,13.70
2022-12-19T13:41:59.374Z,13.20
2022-12-19T13:44:28.151Z,12.50
2022-12-19T13:46:56.527Z,9.30
2022-12-19T13:49:34.547Z,14.80
2022-12-19T13:52:05.132Z,12.20
2022-12-19T13:54:51.920Z,9.20
2022-12-19T13:57:30.175Z,10.30
2022-12-19T14:00:03.939Z,11.00
2022-12-19T14:02:44.327Z,11.50
2022-12-19T14:05:34.000Z,11.30
2022-12-19T14:08:23.593Z,8.80
2022-12-19T14:11:46.510Z,10.70
2022-12-19T14:14:22.091Z,11.30
2022-12-19T14:17:05.310Z,10.20
2022-12-19T14:19:40.357Z,10.20
2022-12-19T14:22:26.334Z,10.80
2022-12-19T14:25:32.107Z,9.50
2022-12-19T14:28:24.463Z,9.80
2022-12-19T14:31:03.145Z,11.20
2022-12-19T14:34:04.247Z,11.20
2022-12-19T14:36:32.827Z,10.30
2022-12-19T14:39:24.087Z,11.80
2022-12-19T14:42:11.167Z,11.30
2022-12-19T14:51:51.773Z,10.40
2022-12-19T14:54:01.160Z,11.60
2022-12-19T14:54:07.108Z,6.90
2022-12-19T14:54:42.091Z,11.00
2022-12-19T14:59:31.191Z,10.90
2022-12-19T15:02:32.463Z,11.50
2022-12-19T15:05:14.856Z,10.90
2022-12-19T15:07:47.847Z,11.70
2022-12-19T15:11:07.819Z,10.00
2022-12-19T15:14:57.024Z,8.10
2022-12-19T15:16:29.772Z,10.40
2022-12-19T15:19:00.602Z,12.30
2022-12-19T15:21:30.900Z,8.20
2022-12-19T15:23:58.805Z,10.70
2022-12-19T15:26:30.645Z,12.50
2022-12-19T15:28:58.866Z,11.30
2022-12-19T15:31:36.270Z,10.70
2022-12-19T15:34:37.958Z,10.00
2022-12-19T15:37:15.109Z,10.80
2022-12-19T15:39:44.549Z,10.80
2022-12-19T15:42:26.118Z,9.50
2022-12-19T15:44:56.571Z,7.40
2022-12-19T15:47:34.035Z,12.00
2022-12-19T15:50:15.456Z,11.50
2022-12-19T15:52:43.175Z,10.30
2022-12-19T15:55:17.210Z,11.00
2022-12-19T15:57:51.611Z,10.40
2022-12-19T16:00:27.765Z,10.10
2022-12-19T16:03:23.710Z,9.60
2022-12-19T16:05:45.941Z,9.40
2022-12-19T16:08:18.273Z,10.50
2022-12-19T16:10:55.891Z,9.80
2022-12-19T16:13:33.971Z,12.00
2022-12-19T16:16:07.949Z,12.70
2022-12-19T16:18:40.787Z,10.80
2022-12-19T16:21:31.643Z,10.70
2022-12-19T16:24:01.262Z,9.30
2022-12-19T16:26:37.187Z,10.20
2022-12-19T16:29:06.623Z,6.60
2022-12-19T16:31:34.646Z,9.70
2022-12-19T16:34:03.886Z,7.00
2022-12-19T16:36:31.806Z,11.10
2022-12-19T16:38:59.521Z,9.90
2022-12-19T16:41:28.453Z,11.00
2022-12-19T16:43:57.027Z,10.40
2022-12-19T16:46:30.731Z,7.00
2022-12-19T16:48:59.640Z,9.80
2022-12-19T16:51:28.172Z,10.90
2022-12-19T16:54:00.590Z,7.40
2022-12-19T16:56:40.724Z,8.60
2022-12-19T16:59:22.418Z,7.30
2022-12-19T17:01:51.138Z,8.10
2022-12-19T17:04:23.398Z,11.50
2022-12-19T17:06:54.128Z,7.40
2022-12-19T17:09:24.416Z,8.80
2022-12-19T17:11:58.075Z,10.80
2022-12-19T17:14:31.692Z,5.70
2022-12-19T17:17:00.249Z,7.50
2022-12-19T17:19:41.653Z,8.20
2022-12-19T17:22:21.388Z,8.40
2022-12-19T17:24:49.528Z,9.10
2022-12-19T17:27:19.143Z,11.80
2022-12-19T17:29:47.343Z,10.70
2022-12-19T17:32:23.668Z,9.00
2022-12-19T17:34:52.786Z,10.00
2022-12-19T17:37:20.993Z,9.90
2022-12-19T17:39:48.985Z,8.00
2022-12-19T17:42:23.760Z,7.80
2022-12-19T17:44:51.922Z,7.80
2022-12-19T17:47:21.017Z,8.10
2022-12-19T17:49:49.538Z,11.30
2022-12-19T17:52:19.981Z,10.50
2022-12-19T17:54:47.684Z,10.60
2022-12-19T17:57:17.729Z,9.50
2022-12-19T17:59:48.504Z,7.90
2022-12-19T18:02:24.118Z,8.70
2022-12-19T18:04:53.218Z,7.60
2022-12-19T18:07:21.202Z,9.10
2022-12-19T18:09:48.983Z,9.80
2022-12-19T18:12:16.735Z,4.90
2022-12-19T18:14:44.424Z,5.70
2022-12-19T18:17:15.997Z,9.70
2022-12-19T18:19:43.752Z,8.50
2022-12-19T18:22:14.982Z,8.90
2022-12-19T18:24:42.801Z,5.20
2022-12-19T18:27:10.593Z,7.70
2022-12-19T18:29:38.308Z,9.30
2022-12-19T18:32:06.338Z,7.30
2022-12-19T18:34:35.565Z,7.70
2022-12-19T18:37:05.497Z,4.90
2022-12-19T18:39:34.222Z,8.50
2022-12-19T18:42:17.997Z,9.90
2022-12-19T18:44:45.721Z,10.50
2022-12-19T18:47:25.488Z,8.10
2022-12-19T18:49:53.219Z,6.60
2022-12-19T18:52:20.953Z,7.70
2022-12-19T18:54:48.588Z,7.60
2022-12-19T18:57:16.308Z,6.70
2022-12-19T18:59:43.929Z,6.50
2022-12-19T19:02:27.473Z,10.70
2022-12-19T19:04:56.180Z,8.90
2022-12-19T19:07:23.925Z,8.20
2022-12-19T19:09:51.838Z,7.60
2022-12-19T19:12:19.453Z,8.30
2022-12-19T19:14:47.085Z,7.90
2022-12-19T19:17:28.149Z,5.40
2022-12-19T19:19:55.983Z,6.80
2022-12-19T19:22:24.867Z,6.30
2022-12-19T19:24:52.551Z,9.00
2022-12-19T19:27:20.187Z,10.20
2022-12-19T19:29:47.893Z,9.50
2022-12-19T19:32:15.867Z,8.80
2022-12-19T19:34:45.147Z,8.30
2022-12-19T19:37:15.324Z,7.60
2022-12-19T19:39:43.051Z,7.10
2022-12-19T19:42:10.892Z,7.30
2022-12-19T19:44:38.665Z,7.00
2022-12-19T19:47:06.465Z,7.80
2022-12-19T19:49:34.257Z,10.30
2022-12-19T19:52:03.073Z,9.30
2022-12-19T19:54:32.179Z,8.40
2022-12-19T19:56:59.772Z,7.60
2022-12-19T19:59:31.332Z,5.70
2022-12-19T20:01:59.743Z,8.10
2022-12-19T20:04:27.935Z,7.80
2022-12-19T20:06:55.719Z,7.30
2022-12-19T20:09:23.414Z,7.30
2022-12-19T20:11:51.067Z,8.60
2022-12-19T20:14:18.747Z,7.80
2022-12-19T20:16:47.369Z,9.10
2022-12-19T20:19:15.789Z,9.30
2022-12-19T20:21:43.812Z,9.60
2022-12-19T20:24:12.829Z,9.00
2022-12-19T20:26:40.795Z,8.80
2022-12-19T20:29:11.427Z,6.50
2022-12-19T20:31:39.644Z,8.90
2022-12-19T20:34:07.570Z,9.50
2022-12-19T20:36:35.685Z,9.40
2022-12-19T20:39:04.059Z,9.00
2022-12-19T20:41:31.925Z,9.00
2022-12-19T20:44:00.039Z,7.20
2022-12-19T20:46:28.299Z,7.80
2022-12-19T20:48:57.284Z,9.10
2022-12-19T20:51:25.060Z,9.70
2022-12-19T20:53:54.657Z,8.90
2022-12-19T20:56:26.071Z,7.70
2022-12-19T20:58:53.949Z,9.40
2022-12-19T21:01:24.757Z,7.00
2022-12-19T21:03:53.272Z,8.10
2022-12-19T21:06:22.680Z,10.40
2022-12-19T21:08:50.456Z,6.70
2022-12-19T21:11:18.137Z,10.30
2022-12-19T21:13:45.819Z,9.40
2022-12-19T21:16:19.703Z,8.80
2022-12-19T21:18:50.051Z,10.30
2022-12-19T21:21:23.041Z,6.10
2022-12-19T21:23:51.956Z,12.00
2022-12-19T21:26:21.400Z,9.10
2022-12-19T21:28:49.498Z,8.20
2022-12-19T21:31:25.269Z,9.60
2022-12-19T21:33:58.865Z,8.30
2022-12-19T21:36:28.908Z,10.10
2022-12-19T21:39:00.433Z,10.20
2022-12-19T21:41:29.859Z,9.40
2022-12-19T21:44:00.350Z,6.40
2022-12-19T21:46:35.361Z,8.20
2022-12-19T21:49:03.241Z,9.00
2022-12-19T21:51:32.156Z,9.20
2022-12-19T21:54:03.409Z,7.70
2022-12-19T21:56:38.926Z,7.30
2022-12-19T21:59:15.733Z,10.50
2022-12-19T22:01:45.329Z,9.30
2022-12-19T22:04:19.807Z,9.20
2022-12-19T22:06:49.116Z,10.30
2022-12-19T22:09:22.490Z,9.10
2022-12-19T22:11:50.644Z,9.30
2022-12-19T22:14:18.388Z,9.30
2022-12-19T22:16:46.130Z,9.30
2022-12-19T22:19:17.959Z,7.50
2022-12-19T22:21:47.172Z,9.20
2022-12-19T22:24:17.260Z,12.00
2022-12-19T22:26:45.058Z,11.60
2022-12-19T22:29:16.666Z,10.30
2022-12-19T22:31:45.161Z,9.30
2022-12-19T22:34:18.167Z,9.90
2022-12-19T22:36:47.525Z,9.10
2022-12-19T22:39:19.017Z,9.70
2022-12-19T22:41:47.147Z,9.40
2022-12-19T22:44:22.354Z,8.70
2022-12-19T22:46:51.661Z,10.70
2022-12-19T22:49:19.893Z,10.40
2022-12-19T22:51:47.858Z,10.10
2022-12-19T22:54:16.024Z,9.10
2022-12-19T22:56:43.732Z,10.40
2022-12-19T22:59:12.625Z,10.20
2022-12-19T23:01:43.527Z,7.70
2022-12-19T23:04:15.767Z,8.90
2022-12-19T23:06:44.301Z,6.90
2022-12-19T23:09:16.390Z,9.70
2022-12-19T23:11:48.860Z,9.50
2022-12-19T23:14:18.890Z,9.60
2022-12-19T23:16:48.055Z,10.50
2022-12-19T23:19:17.035Z,9.80
2022-12-19T23:21:45.682Z,10.70
2022-12-19T23:24:13.949Z,8.30
2022-12-19T23:26:42.027Z,6.30
2022-12-19T23:29:14.294Z,9.10
2022-12-19T23:31:45.839Z,7.30
2022-12-19T23:34:15.680Z,6.00
2022-12-19T23:39:32.267Z,10.40
2022-12-19T23:41:59.989Z,9.80
2022-12-19T23:44:27.953Z,9.10
2022-12-19T23:47:02.377Z,9.60
2022-12-19T23:49:33.334Z,9.00
2022-12-19T23:52:01.305Z,9.60
2022-12-19T23:54:29.181Z,8.70
2022-12-19T23:56:56.869Z,7.70
2022-12-19T23:59:24.568Z,9.00
